sensor_id;sensor_type;location;lat;lon;timestamp;P1;durP1;ratioP1;P2;durP2;ratioP2
85129;SDS011;75492;49.310;20.046;2024-02-14T00:04:06;8.25;;;5.28;;
85129;SDS011;75492;49.310;20.046;2024-02-14T00:09:09;6.65;;;4.53;;
85129;SDS011;75492;49.310;20.046;2024-02-14T00:14:10;7.63;;;4.60;;
85129;SDS011;75492;49.310;20.046;2024-02-14T00:19:12;9.30;;;5.22;;
85129;SDS011;75492;49.310;20.046;2024-02-14T00:24:15;7.18;;;4.18;;
85129;SDS011;75492;49.310;20.046;2024-02-14T00:29:16;4.85;;;2.97;;
85129;SDS011;75492;49.310;20.046;2024-02-14T00:34:17;6.93;;;4.10;;
85129;SDS011;75492;49.310;20.046;2024-02-14T00:39:20;11.95;;;8.80;;
85129;SDS011;75492;49.310;20.046;2024-02-14T00:44:21;9.30;;;4.97;;
85129;SDS011;75492;49.310;20.046;2024-02-14T00:49:22;12.80;;;5.53;;
85129;SDS011;75492;49.310;20.046;2024-02-14T00:54:25;7.72;;;4.32;;
85129;SDS011;75492;49.310;20.046;2024-02-14T00:59:27;7.22;;;3.70;;
85129;SDS011;75492;49.310;20.046;2024-02-14T01:04:28;11.38;;;6.78;;
85129;SDS011;75492;49.310;20.046;2024-02-14T01:09:31;12.40;;;8.10;;
85129;SDS011;75492;49.310;20.046;2024-02-14T01:14:32;15.63;;;7.15;;
85129;SDS011;75492;49.310;20.046;2024-02-14T01:19:33;8.57;;;3.42;;
85129;SDS011;75492;49.310;20.046;2024-02-14T01:24:36;8.02;;;4.57;;
85129;SDS011;75492;49.310;20.046;2024-02-14T01:29:37;4.05;;;2.70;;
85129;SDS011;75492;49.310;20.046;2024-02-14T01:34:39;4.15;;;2.50;;
85129;SDS011;75492;49.310;20.046;2024-02-14T01:39:41;5.28;;;3.20;;
85129;SDS011;75492;49.310;20.046;2024-02-14T01:44:43;5.40;;;3.58;;
85129;SDS011;75492;49.310;20.046;2024-02-14T01:49:44;6.45;;;4.15;;
85129;SDS011;75492;49.310;20.046;2024-02-14T01:54:47;10.63;;;4.40;;
85129;SDS011;75492;49.310;20.046;2024-02-14T01:59:49;6.90;;;3.55;;
85129;SDS011;75492;49.310;20.046;2024-02-14T02:04:52;5.75;;;3.05;;
85129;SDS011;75492;49.310;20.046;2024-02-14T02:09:55;4.97;;;3.63;;
85129;SDS011;75492;49.310;20.046;2024-02-14T02:14:56;3.30;;;2.63;;
85129;SDS011;75492;49.310;20.046;2024-02-14T02:19:57;5.95;;;3.80;;
85129;SDS011;75492;49.310;20.046;2024-02-14T02:25:00;6.05;;;3.53;;
85129;SDS011;75492;49.310;20.046;2024-02-14T02:30:02;7.85;;;2.88;;
85129;SDS011;75492;49.310;20.046;2024-02-14T02:35:04;4.63;;;3.45;;
85129;SDS011;75492;49.310;20.046;2024-02-14T02:40:07;4.82;;;3.90;;
85129;SDS011;75492;49.310;20.046;2024-02-14T02:45:09;5.25;;;3.08;;
85129;SDS011;75492;49.310;20.046;2024-02-14T02:50:11;5.53;;;3.85;;
85129;SDS011;75492;49.310;20.046;2024-02-14T02:55:14;6.90;;;3.58;;
85129;SDS011;75492;49.310;20.046;2024-02-14T03:00:15;5.57;;;3.10;;
85129;SDS011;75492;49.310;20.046;2024-02-14T03:05:17;3.92;;;2.83;;
85129;SDS011;75492;49.310;20.046;2024-02-14T03:10:20;4.65;;;3.00;;
85129;SDS011;75492;49.310;20.046;2024-02-14T03:15:21;4.20;;;2.65;;
85129;SDS011;75492;49.310;20.046;2024-02-14T03:20:23;3.60;;;2.65;;
85129;SDS011;75492;49.310;20.046;2024-02-14T03:25:25;11.60;;;4.63;;
85129;SDS011;75492;49.310;20.046;2024-02-14T03:30:27;4.07;;;2.75;;
85129;SDS011;75492;49.310;20.046;2024-02-14T03:35:28;7.53;;;2.92;;
85129;SDS011;75492;49.310;20.046;2024-02-14T03:40:32;5.10;;;3.75;;
85129;SDS011;75492;49.310;20.046;2024-02-14T03:45:33;4.68;;;2.50;;
85129;SDS011;75492;49.310;20.046;2024-02-14T03:50:34;5.05;;;3.42;;
85129;SDS011;75492;49.310;20.046;2024-02-14T03:55:37;7.75;;;5.40;;
85129;SDS011;75492;49.310;20.046;2024-02-14T04:00:38;12.75;;;6.40;;
85129;SDS011;75492;49.310;20.046;2024-02-14T04:05:39;9.15;;;5.53;;
85129;SDS011;75492;49.310;20.046;2024-02-14T04:10:42;5.82;;;3.80;;
85129;SDS011;75492;49.310;20.046;2024-02-14T04:15:44;4.32;;;3.28;;
85129;SDS011;75492;49.310;20.046;2024-02-14T04:20:45;6.00;;;4.07;;
85129;SDS011;75492;49.310;20.046;2024-02-14T04:25:47;4.63;;;3.45;;
85129;SDS011;75492;49.310;20.046;2024-02-14T04:30:49;4.03;;;2.65;;
85129;SDS011;75492;49.310;20.046;2024-02-14T04:35:50;6.97;;;3.60;;
85129;SDS011;75492;49.310;20.046;2024-02-14T04:40:53;9.10;;;2.97;;
85129;SDS011;75492;49.310;20.046;2024-02-14T04:45:55;4.40;;;2.80;;
85129;SDS011;75492;49.310;20.046;2024-02-14T04:50:56;9.93;;;3.53;;
85129;SDS011;75492;49.310;20.046;2024-02-14T04:55:59;7.07;;;3.28;;
85129;SDS011;75492;49.310;20.046;2024-02-14T05:01:01;6.35;;;3.05;;
85129;SDS011;75492;49.310;20.046;2024-02-14T05:06:03;7.88;;;2.90;;
85129;SDS011;75492;49.310;20.046;2024-02-14T05:11:10;4.32;;;2.42;;
85129;SDS011;75492;49.310;20.046;2024-02-14T05:16:12;4.47;;;2.78;;
85129;SDS011;75492;49.310;20.046;2024-02-14T05:21:19;4.03;;;2.40;;
85129;SDS011;75492;49.310;20.046;2024-02-14T05:26:23;6.55;;;4.43;;
85129;SDS011;75492;49.310;20.046;2024-02-14T05:31:24;3.58;;;2.13;;
85129;SDS011;75492;49.310;20.046;2024-02-14T05:36:42;2.90;;;2.00;;
85129;SDS011;75492;49.310;20.046;2024-02-14T05:41:45;3.30;;;2.53;;
85129;SDS011;75492;49.310;20.046;2024-02-14T05:46:46;3.78;;;2.70;;
85129;SDS011;75492;49.310;20.046;2024-02-14T05:51:48;4.18;;;2.78;;
85129;SDS011;75492;49.310;20.046;2024-02-14T05:56:50;4.93;;;3.25;;
85129;SDS011;75492;49.310;20.046;2024-02-14T06:01:52;2.90;;;2.45;;
85129;SDS011;75492;49.310;20.046;2024-02-14T06:06:53;3.10;;;1.90;;
85129;SDS011;75492;49.310;20.046;2024-02-14T06:11:56;4.05;;;2.58;;
85129;SDS011;75492;49.310;20.046;2024-02-14T06:16:57;2.88;;;1.83;;
85129;SDS011;75492;49.310;20.046;2024-02-14T06:21:58;4.82;;;1.90;;
85129;SDS011;75492;49.310;20.046;2024-02-14T06:27:01;6.03;;;2.03;;
85129;SDS011;75492;49.310;20.046;2024-02-14T06:32:02;3.15;;;2.20;;
85129;SDS011;75492;49.310;20.046;2024-02-14T06:37:04;4.63;;;2.13;;
85129;SDS011;75492;49.310;20.046;2024-02-14T06:42:07;3.92;;;1.95;;
85129;SDS011;75492;49.310;20.046;2024-02-14T06:47:08;3.75;;;1.77;;
85129;SDS011;75492;49.310;20.046;2024-02-14T06:52:10;3.42;;;1.95;;
85129;SDS011;75492;49.310;20.046;2024-02-14T06:57:12;4.00;;;2.30;;
85129;SDS011;75492;49.310;20.046;2024-02-14T07:02:14;3.88;;;2.13;;
85129;SDS011;75492;49.310;20.046;2024-02-14T07:07:15;4.78;;;2.85;;
85129;SDS011;75492;49.310;20.046;2024-02-14T07:12:18;4.07;;;2.00;;
85129;SDS011;75492;49.310;20.046;2024-02-14T07:17:19;3.47;;;1.90;;
85129;SDS011;75492;49.310;20.046;2024-02-14T07:22:20;3.25;;;2.10;;
85129;SDS011;75492;49.310;20.046;2024-02-14T07:27:23;3.10;;;1.55;;
85129;SDS011;75492;49.310;20.046;2024-02-14T07:32:25;3.75;;;1.83;;
85129;SDS011;75492;49.310;20.046;2024-02-14T07:37:27;3.65;;;2.38;;
85129;SDS011;75492;49.310;20.046;2024-02-14T07:42:29;10.93;;;6.97;;
85129;SDS011;75492;49.310;20.046;2024-02-14T07:47:31;15.60;;;9.57;;
85129;SDS011;75492;49.310;20.046;2024-02-14T07:52:32;15.57;;;9.18;;
85129;SDS011;75492;49.310;20.046;2024-02-14T07:57:35;12.60;;;6.18;;
85129;SDS011;75492;49.310;20.046;2024-02-14T08:02:36;13.15;;;8.07;;
85129;SDS011;75492;49.310;20.046;2024-02-14T08:07:38;15.73;;;10.07;;
85129;SDS011;75492;49.310;20.046;2024-02-14T08:12:41;16.42;;;8.98;;
85129;SDS011;75492;49.310;20.046;2024-02-14T08:17:42;11.90;;;6.95;;
85129;SDS011;75492;49.310;20.046;2024-02-14T08:22:46;10.05;;;6.13;;
85129;SDS011;75492;49.310;20.046;2024-02-14T08:27:49;7.30;;;3.45;;
85129;SDS011;75492;49.310;20.046;2024-02-14T08:32:55;6.90;;;3.90;;
85129;SDS011;75492;49.310;20.046;2024-02-14T08:37:57;8.45;;;5.32;;
85129;SDS011;75492;49.310;20.046;2024-02-14T08:42:59;8.18;;;5.32;;
85129;SDS011;75492;49.310;20.046;2024-02-14T08:48:03;6.35;;;3.28;;
85129;SDS011;75492;49.310;20.046;2024-02-14T08:53:05;7.22;;;4.07;;
85129;SDS011;75492;49.310;20.046;2024-02-14T08:58:08;5.78;;;3.33;;
85129;SDS011;75492;49.310;20.046;2024-02-14T09:03:10;6.32;;;3.67;;
85129;SDS011;75492;49.310;20.046;2024-02-14T09:08:11;6.45;;;3.95;;
85129;SDS011;75492;49.310;20.046;2024-02-14T09:13:14;7.57;;;4.25;;
85129;SDS011;75492;49.310;20.046;2024-02-14T09:18:16;7.45;;;4.28;;
85129;SDS011;75492;49.310;20.046;2024-02-14T09:23:17;7.07;;;4.25;;
85129;SDS011;75492;49.310;20.046;2024-02-14T09:28:20;8.48;;;4.57;;
85129;SDS011;75492;49.310;20.046;2024-02-14T09:33:22;9.65;;;5.20;;
85129;SDS011;75492;49.310;20.046;2024-02-14T09:38:23;7.90;;;4.90;;
85129;SDS011;75492;49.310;20.046;2024-02-14T09:43:28;7.70;;;5.18;;
85129;SDS011;75492;49.310;20.046;2024-02-14T09:48:35;6.90;;;3.72;;
85129;SDS011;75492;49.310;20.046;2024-02-14T09:53:39;4.88;;;3.03;;
85129;SDS011;75492;49.310;20.046;2024-02-14T09:58:42;6.30;;;3.33;;
85129;SDS011;75492;49.310;20.046;2024-02-14T10:03:44;5.72;;;3.83;;
85129;SDS011;75492;49.310;20.046;2024-02-14T10:08:46;4.63;;;2.72;;
85129;SDS011;75492;49.310;20.046;2024-02-14T10:13:49;4.10;;;2.97;;
85129;SDS011;75492;49.310;20.046;2024-02-14T10:18:50;10.05;;;4.53;;
85129;SDS011;75492;49.310;20.046;2024-02-14T10:23:52;8.65;;;5.13;;
85129;SDS011;75492;49.310;20.046;2024-02-14T10:28:55;9.63;;;4.50;;
85129;SDS011;75492;49.310;20.046;2024-02-14T10:33:57;7.88;;;3.75;;
85129;SDS011;75492;49.310;20.046;2024-02-14T10:39:01;7.68;;;3.75;;
85129;SDS011;75492;49.310;20.046;2024-02-14T10:44:04;6.45;;;3.85;;
85129;SDS011;75492;49.310;20.046;2024-02-14T10:49:05;6.57;;;4.03;;
85129;SDS011;75492;49.310;20.046;2024-02-14T10:54:10;10.00;;;4.22;;
85129;SDS011;75492;49.310;20.046;2024-02-14T10:59:14;10.20;;;4.35;;
85129;SDS011;75492;49.310;20.046;2024-02-14T11:04:17;10.20;;;4.93;;
85129;SDS011;75492;49.310;20.046;2024-02-14T11:09:20;8.60;;;5.03;;
85129;SDS011;75492;49.310;20.046;2024-02-14T11:14:22;8.60;;;5.30;;
85129;SDS011;75492;49.310;20.046;2024-02-14T11:19:30;8.20;;;5.43;;
85129;SDS011;75492;49.310;20.046;2024-02-14T11:24:32;14.48;;;5.28;;
85129;SDS011;75492;49.310;20.046;2024-02-14T11:29:40;6.70;;;4.25;;
85129;SDS011;75492;49.310;20.046;2024-02-14T11:34:54;10.40;;;4.50;;
85129;SDS011;75492;49.310;20.046;2024-02-14T11:39:56;7.97;;;5.38;;
85129;SDS011;75492;49.310;20.046;2024-02-14T11:44:59;4.38;;;3.28;;
85129;SDS011;75492;49.310;20.046;2024-02-14T11:50:02;4.47;;;2.42;;
85129;SDS011;75492;49.310;20.046;2024-02-14T11:55:04;5.05;;;2.70;;
85129;SDS011;75492;49.310;20.046;2024-02-14T12:00:08;6.38;;;3.00;;
85129;SDS011;75492;49.310;20.046;2024-02-14T12:05:09;7.47;;;2.20;;
85129;SDS011;75492;49.310;20.046;2024-02-14T12:10:11;3.80;;;1.65;;
85129;SDS011;75492;49.310;20.046;2024-02-14T12:15:14;4.00;;;1.95;;
85129;SDS011;75492;49.310;20.046;2024-02-14T12:20:15;5.60;;;2.40;;
85129;SDS011;75492;49.310;20.046;2024-02-14T12:25:16;5.47;;;2.58;;
85129;SDS011;75492;49.310;20.046;2024-02-14T12:30:19;6.03;;;3.38;;
85129;SDS011;75492;49.310;20.046;2024-02-14T12:35:20;3.38;;;2.05;;
85129;SDS011;75492;49.310;20.046;2024-02-14T12:40:23;3.47;;;2.10;;
85129;SDS011;75492;49.310;20.046;2024-02-14T12:45:26;3.70;;;1.90;;
85129;SDS011;75492;49.310;20.046;2024-02-14T12:50:28;3.95;;;2.30;;
85129;SDS011;75492;49.310;20.046;2024-02-14T12:55:29;6.53;;;3.00;;
85129;SDS011;75492;49.310;20.046;2024-02-14T13:00:32;7.47;;;1.90;;
85129;SDS011;75492;49.310;20.046;2024-02-14T13:05:34;3.38;;;1.88;;
85129;SDS011;75492;49.310;20.046;2024-02-14T13:10:35;3.38;;;1.67;;
85129;SDS011;75492;49.310;20.046;2024-02-14T13:15:38;6.38;;;1.88;;
85129;SDS011;75492;49.310;20.046;2024-02-14T13:20:39;10.02;;;5.50;;
85129;SDS011;75492;49.310;20.046;2024-02-14T13:25:40;5.05;;;2.00;;
85129;SDS011;75492;49.310;20.046;2024-02-14T13:30:45;5.07;;;1.83;;
85129;SDS011;75492;49.310;20.046;2024-02-14T13:35:51;4.70;;;1.65;;
85129;SDS011;75492;49.310;20.046;2024-02-14T13:40:59;3.25;;;1.95;;
85129;SDS011;75492;49.310;20.046;2024-02-14T13:46:01;8.02;;;2.28;;
85129;SDS011;75492;49.310;20.046;2024-02-14T13:51:03;4.20;;;2.25;;
85129;SDS011;75492;49.310;20.046;2024-02-14T13:56:04;9.68;;;2.92;;
85129;SDS011;75492;49.310;20.046;2024-02-14T14:01:09;5.28;;;2.40;;
85129;SDS011;75492;49.310;20.046;2024-02-14T14:06:12;5.50;;;2.38;;
85129;SDS011;75492;49.310;20.046;2024-02-14T14:11:14;4.47;;;2.72;;
85129;SDS011;75492;49.310;20.046;2024-02-14T14:16:17;4.63;;;2.70;;
85129;SDS011;75492;49.310;20.046;2024-02-14T14:21:19;3.17;;;2.00;;
85129;SDS011;75492;49.310;20.046;2024-02-14T14:26:22;10.90;;;6.10;;
85129;SDS011;75492;49.310;20.046;2024-02-14T14:31:29;10.27;;;6.93;;
85129;SDS011;75492;49.310;20.046;2024-02-14T14:36:35;14.15;;;5.57;;
85129;SDS011;75492;49.310;20.046;2024-02-14T14:41:40;11.32;;;5.00;;
85129;SDS011;75492;49.310;20.046;2024-02-14T14:46:43;10.23;;;4.93;;
85129;SDS011;75492;49.310;20.046;2024-02-14T14:51:44;12.88;;;6.20;;
85129;SDS011;75492;49.310;20.046;2024-02-14T14:56:46;10.73;;;5.47;;
85129;SDS011;75492;49.310;20.046;2024-02-14T15:01:55;6.60;;;3.80;;
85129;SDS011;75492;49.310;20.046;2024-02-14T15:06:56;20.13;;;7.15;;
85129;SDS011;75492;49.310;20.046;2024-02-14T15:11:57;16.88;;;6.05;;
85129;SDS011;75492;49.310;20.046;2024-02-14T15:17:01;13.23;;;5.72;;
85129;SDS011;75492;49.310;20.046;2024-02-14T15:22:07;15.45;;;6.47;;
85129;SDS011;75492;49.310;20.046;2024-02-14T15:27:10;24.02;;;9.35;;
85129;SDS011;75492;49.310;20.046;2024-02-14T15:32:14;26.35;;;8.38;;
85129;SDS011;75492;49.310;20.046;2024-02-14T15:37:19;28.05;;;11.43;;
85129;SDS011;75492;49.310;20.046;2024-02-14T15:42:22;27.70;;;10.80;;
85129;SDS011;75492;49.310;20.046;2024-02-14T15:47:29;40.25;;;12.60;;
85129;SDS011;75492;49.310;20.046;2024-02-14T15:52:34;26.88;;;10.00;;
85129;SDS011;75492;49.310;20.046;2024-02-14T15:57:39;19.20;;;8.27;;
85129;SDS011;75492;49.310;20.046;2024-02-14T16:02:42;24.45;;;8.90;;
85129;SDS011;75492;49.310;20.046;2024-02-14T16:07:43;23.17;;;9.35;;
85129;SDS011;75492;49.310;20.046;2024-02-14T16:12:46;31.15;;;11.63;;
85129;SDS011;75492;49.310;20.046;2024-02-14T16:17:49;29.63;;;10.50;;
85129;SDS011;75492;49.310;20.046;2024-02-14T16:22:51;27.30;;;10.70;;
85129;SDS011;75492;49.310;20.046;2024-02-14T16:27:53;21.63;;;7.20;;
85129;SDS011;75492;49.310;20.046;2024-02-14T16:32:55;20.67;;;8.95;;
85129;SDS011;75492;49.310;20.046;2024-02-14T16:37:57;16.10;;;6.03;;
85129;SDS011;75492;49.310;20.046;2024-02-14T16:42:58;26.90;;;9.73;;
85129;SDS011;75492;49.310;20.046;2024-02-14T16:48:02;13.88;;;6.65;;
85129;SDS011;75492;49.310;20.046;2024-02-14T16:53:06;17.73;;;6.28;;
85129;SDS011;75492;49.310;20.046;2024-02-14T16:58:07;15.20;;;3.50;;
85129;SDS011;75492;49.310;20.046;2024-02-14T17:03:10;10.75;;;4.40;;
85129;SDS011;75492;49.310;20.046;2024-02-14T17:08:11;21.08;;;7.07;;
85129;SDS011;75492;49.310;20.046;2024-02-14T17:13:13;25.15;;;8.52;;
85129;SDS011;75492;49.310;20.046;2024-02-14T17:18:16;26.77;;;9.35;;
85129;SDS011;75492;49.310;20.046;2024-02-14T17:23:17;18.25;;;7.38;;
85129;SDS011;75492;49.310;20.046;2024-02-14T17:28:18;12.65;;;5.28;;
85129;SDS011;75492;49.310;20.046;2024-02-14T17:33:21;16.88;;;5.18;;
85129;SDS011;75492;49.310;20.046;2024-02-14T17:38:23;17.05;;;6.85;;
85129;SDS011;75492;49.310;20.046;2024-02-14T17:43:24;24.92;;;9.55;;
85129;SDS011;75492;49.310;20.046;2024-02-14T17:48:27;22.42;;;7.93;;
85129;SDS011;75492;49.310;20.046;2024-02-14T17:53:28;25.08;;;10.48;;
85129;SDS011;75492;49.310;20.046;2024-02-14T17:58:29;21.23;;;9.40;;
85129;SDS011;75492;49.310;20.046;2024-02-14T18:03:32;21.08;;;8.00;;
85129;SDS011;75492;49.310;20.046;2024-02-14T18:08:34;18.98;;;7.90;;
85129;SDS011;75492;49.310;20.046;2024-02-14T18:13:35;28.60;;;11.70;;
85129;SDS011;75492;49.310;20.046;2024-02-14T18:18:38;27.33;;;10.50;;
85129;SDS011;75492;49.310;20.046;2024-02-14T18:23:39;26.13;;;10.32;;
85129;SDS011;75492;49.310;20.046;2024-02-14T18:28:41;26.45;;;10.48;;
85129;SDS011;75492;49.310;20.046;2024-02-14T18:33:43;32.80;;;13.32;;
85129;SDS011;75492;49.310;20.046;2024-02-14T18:38:45;28.83;;;10.43;;
85129;SDS011;75492;49.310;20.046;2024-02-14T18:43:46;29.10;;;10.88;;
85129;SDS011;75492;49.310;20.046;2024-02-14T18:48:49;25.23;;;10.27;;
85129;SDS011;75492;49.310;20.046;2024-02-14T18:53:50;25.02;;;10.57;;
85129;SDS011;75492;49.310;20.046;2024-02-14T18:58:52;21.77;;;10.35;;
85129;SDS011;75492;49.310;20.046;2024-02-14T19:03:55;20.73;;;7.32;;
85129;SDS011;75492;49.310;20.046;2024-02-14T19:08:56;25.35;;;8.88;;
85129;SDS011;75492;49.310;20.046;2024-02-14T19:13:58;9.85;;;5.15;;
85129;SDS011;75492;49.310;20.046;2024-02-14T19:19:00;13.52;;;6.30;;
85129;SDS011;75492;49.310;20.046;2024-02-14T19:24:02;13.43;;;6.20;;
85129;SDS011;75492;49.310;20.046;2024-02-14T19:29:04;24.13;;;8.80;;
85129;SDS011;75492;49.310;20.046;2024-02-14T19:34:07;21.63;;;6.63;;
85129;SDS011;75492;49.310;20.046;2024-02-14T19:39:08;15.57;;;5.25;;
85129;SDS011;75492;49.310;20.046;2024-02-14T19:44:09;5.28;;;2.75;;
85129;SDS011;75492;49.310;20.046;2024-02-14T19:49:12;5.10;;;2.30;;
85129;SDS011;75492;49.310;20.046;2024-02-14T19:54:15;2.75;;;1.73;;
85129;SDS011;75492;49.310;20.046;2024-02-14T19:59:19;3.08;;;1.48;;
85129;SDS011;75492;49.310;20.046;2024-02-14T20:04:22;5.25;;;1.77;;
85129;SDS011;75492;49.310;20.046;2024-02-14T20:09:24;7.13;;;3.13;;
85129;SDS011;75492;49.310;20.046;2024-02-14T20:14:25;14.27;;;6.65;;
85129;SDS011;75492;49.310;20.046;2024-02-14T20:19:28;23.25;;;7.57;;
85129;SDS011;75492;49.310;20.046;2024-02-14T20:24:29;22.67;;;7.72;;
85129;SDS011;75492;49.310;20.046;2024-02-14T20:29:32;25.40;;;9.45;;
85129;SDS011;75492;49.310;20.046;2024-02-14T20:34:35;12.55;;;3.85;;
85129;SDS011;75492;49.310;20.046;2024-02-14T20:39:36;6.88;;;2.95;;
85129;SDS011;75492;49.310;20.046;2024-02-14T20:44:38;12.43;;;4.20;;
85129;SDS011;75492;49.310;20.046;2024-02-14T20:49:42;13.50;;;3.45;;
85129;SDS011;75492;49.310;20.046;2024-02-14T20:54:44;15.88;;;6.18;;
85129;SDS011;75492;49.310;20.046;2024-02-14T20:59:46;33.42;;;10.77;;
85129;SDS011;75492;49.310;20.046;2024-02-14T21:04:49;33.75;;;11.18;;
85129;SDS011;75492;49.310;20.046;2024-02-14T21:09:51;36.30;;;12.35;;
85129;SDS011;75492;49.310;20.046;2024-02-14T21:14:54;41.75;;;13.95;;
85129;SDS011;75492;49.310;20.046;2024-02-14T21:19:58;27.25;;;11.35;;
85129;SDS011;75492;49.310;20.046;2024-02-14T21:24:59;39.20;;;12.40;;
85129;SDS011;75492;49.310;20.046;2024-02-14T21:30:01;30.48;;;12.63;;
85129;SDS011;75492;49.310;20.046;2024-02-14T21:35:04;32.25;;;12.98;;
85129;SDS011;75492;49.310;20.046;2024-02-14T21:40:07;23.50;;;8.77;;
85129;SDS011;75492;49.310;20.046;2024-02-14T21:45:09;27.05;;;11.10;;
85129;SDS011;75492;49.310;20.046;2024-02-14T21:50:12;32.10;;;11.65;;
85129;SDS011;75492;49.310;20.046;2024-02-14T21:55:13;25.73;;;9.80;;
85129;SDS011;75492;49.310;20.046;2024-02-14T22:00:16;20.77;;;7.82;;
85129;SDS011;75492;49.310;20.046;2024-02-14T22:05:19;28.27;;;9.95;;
85129;SDS011;75492;49.310;20.046;2024-02-14T22:10:20;23.27;;;9.73;;
85129;SDS011;75492;49.310;20.046;2024-02-14T22:15:22;22.10;;;8.68;;
85129;SDS011;75492;49.310;20.046;2024-02-14T22:20:24;19.73;;;7.45;;
85129;SDS011;75492;49.310;20.046;2024-02-14T22:25:26;15.30;;;8.05;;
85129;SDS011;75492;49.310;20.046;2024-02-14T22:30:27;18.85;;;6.88;;
85129;SDS011;75492;49.310;20.046;2024-02-14T22:35:30;17.88;;;6.10;;
85129;SDS011;75492;49.310;20.046;2024-02-14T22:40:32;13.60;;;5.63;;
85129;SDS011;75492;49.310;20.046;2024-02-14T22:45:33;8.50;;;3.97;;
85129;SDS011;75492;49.310;20.046;2024-02-14T22:50:36;10.18;;;5.00;;
85129;SDS011;75492;49.310;20.046;2024-02-14T22:55:37;13.93;;;4.80;;
85129;SDS011;75492;49.310;20.046;2024-02-14T23:00:38;8.43;;;3.40;;
85129;SDS011;75492;49.310;20.046;2024-02-14T23:05:41;12.52;;;4.45;;
85129;SDS011;75492;49.310;20.046;2024-02-14T23:10:43;10.55;;;5.03;;
85129;SDS011;75492;49.310;20.046;2024-02-14T23:15:44;12.63;;;5.90;;
85129;SDS011;75492;49.310;20.046;2024-02-14T23:20:47;10.32;;;5.13;;
85129;SDS011;75492;49.310;20.046;2024-02-14T23:25:48;17.67;;;8.25;;
85129;SDS011;75492;49.310;20.046;2024-02-14T23:30:50;15.55;;;7.28;;
85129;SDS011;75492;49.310;20.046;2024-02-14T23:35:56;12.45;;;5.88;;
85129;SDS011;75492;49.310;20.046;2024-02-14T23:41:00;11.88;;;5.47;;
85129;SDS011;75492;49.310;20.046;2024-02-14T23:46:01;10.60;;;3.28;;
85129;SDS011;75492;49.310;20.046;2024-02-14T23:51:04;7.60;;;3.63;;
85129;SDS011;75492;49.310;20.046;2024-02-14T23:56:06;10.38;;;4.38;;
